Time;durP1;ratioP1;P1;durP2;ratioP2;P2;SDS_P1;SDS_P2;PMS_P1;PMS_P2;Temp;Humidity;BMP_temperature;BMP_pressure;BME280_temperature;BME280_humidity;BME280_pressure;Samples;Min_cycle;Max_cycle;Signal;HPM_P1;HPM_P2
2022/10/08 00:01:15;;;;;;;23.05;15.73;;;15.60;99.90;;;;;;5050598;28;20243;-50
2022/10/08 00:04:19;;;;;;;21.42;15.02;;;15.50;99.90;;;;;;5050265;28;20039;-54
2022/10/08 00:07:23;;;;;;;26.00;15.38;;;15.40;99.90;;;;;;5050501;28;20108;-52
2022/10/08 00:10:27;;;;;;;23.55;14.52;;;15.40;99.90;;;;;;5049940;28;20044;-50
2022/10/08 00:13:39;;;;;;;23.80;14.30;;;15.40;99.90;;;;;;5050134;28;20040;-50
2022/10/08 00:16:43;;;;;;;23.52;15.40;;;15.40;99.90;;;;;;5050309;28;20048;-50
2022/10/08 00:19:47;;;;;;;26.33;15.05;;;15.40;99.90;;;;;;5049010;28;20051;-50
2022/10/08 00:22:51;;;;;;;20.77;15.07;;;15.50;99.90;;;;;;5049902;28;20408;-50
2022/10/08 00:25:55;;;;;;;20.00;14.27;;;15.50;99.90;;;;;;5050256;28;20055;-50
2022/10/08 00:29:02;;;;;;;26.63;15.25;;;15.60;99.90;;;;;;5049974;28;20044;-50
2022/10/08 00:32:06;;;;;;;22.05;13.52;;;15.60;99.90;;;;;;5049863;28;20048;-50
2022/10/08 00:35:10;;;;;;;19.92;13.10;;;15.70;99.90;;;;;;5049827;28;20052;-50
2022/10/08 00:38:14;;;;;;;23.42;13.80;;;15.70;99.90;;;;;;5049524;28;20068;-50
2022/10/08 00:41:22;;;;;;;20.27;12.43;;;15.70;99.90;;;;;;5049999;28;20036;-50
2022/10/08 00:44:51;;;;;;;19.42;12.98;;;15.80;99.90;;;;;;5049901;28;20108;-50
2022/10/08 00:47:56;;;;;;;22.80;11.95;;;15.70;99.90;;;;;;5050267;28;20051;-50
2022/10/08 00:51:01;;;;;;;21.30;14.18;;;15.70;99.90;;;;;;5049906;28;20044;-51
2022/10/08 00:54:05;;;;;;;20.90;15.18;;;15.70;99.90;;;;;;5049692;28;20051;-51
2022/10/08 00:57:09;;;;;;;23.10;13.95;;;15.70;99.90;;;;;;5049660;28;20063;-51
2022/10/08 01:00:17;;;;;;;19.13;13.13;;;15.70;99.90;;;;;;5049603;28;20052;-51
2022/10/08 01:03:21;;;;;;;20.70;13.30;;;15.70;99.90;;;;;;5049252;28;20415;-51
2022/10/08 01:06:29;;;;;;;21.25;13.35;;;15.60;99.90;;;;;;5049662;28;20044;-50
2022/10/08 01:09:41;;;;;;;25.60;13.95;;;15.60;99.90;;;;;;5049883;28;20048;-51
2022/10/08 01:13:06;;;;;;;19.55;12.75;;;15.60;99.90;;;;;;5049432;28;20059;-50
2022/10/08 01:16:28;;;;;;;20.50;13.35;;;15.40;99.90;;;;;;5049236;28;20044;-52
2022/10/08 01:20:09;;;;;;;22.90;14.23;;;15.20;99.90;;;;;;5049145;28;20222;-54
2022/10/08 01:23:45;;;;;;;25.98;15.75;;;15.20;99.90;;;;;;5048861;28;20427;-50
2022/10/08 01:27:05;;;;;;;28.30;19.58;;;15.00;99.90;;;;;;5049385;28;20060;-51
2022/10/08 01:30:13;;;;;;;25.17;18.08;;;14.90;99.90;;;;;;5049478;28;20044;-50
2022/10/08 01:33:24;;;;;;;28.60;18.90;;;14.80;99.90;;;;;;5048676;28;20419;-51
2022/10/08 01:36:35;;;;;;;26.98;17.67;;;14.70;99.90;;;;;;5049257;28;20052;-51
2022/10/08 01:39:41;;;;;;;28.08;17.98;;;14.70;99.90;;;;;;5048980;28;20518;-50
2022/10/08 01:42:48;;;;;;;27.00;18.20;;;14.70;99.90;;;;;;5049039;28;20052;-51
2022/10/08 01:45:58;;;;;;;31.75;18.27;;;14.60;99.90;;;;;;5049158;28;20044;-50
2022/10/08 01:49:09;;;;;;;31.85;19.13;;;14.60;99.90;;;;;;5049304;28;20052;-54
2022/10/08 01:52:39;;;;;;;25.60;16.88;;;14.60;99.90;;;;;;5049482;28;20060;-50
2022/10/08 01:55:49;;;;;;;28.40;18.10;;;14.60;99.90;;;;;;5049590;28;20067;-51
2022/10/08 01:59:01;;;;;;;31.02;18.33;;;14.60;99.90;;;;;;5048962;28;20052;-50
2022/10/08 02:02:23;;;;;;;24.75;18.00;;;14.60;99.90;;;;;;5049080;28;20507;-51
2022/10/08 02:05:31;;;;;;;27.50;18.27;;;14.50;99.90;;;;;;5049136;28;20032;-51
2022/10/08 02:08:34;;;;;;;31.95;18.08;;;14.50;99.90;;;;;;5049300;28;20530;-51
2022/10/08 02:11:39;;;;;;;35.72;20.95;;;14.40;99.90;;;;;;5048855;28;20112;-51
2022/10/08 02:14:49;;;;;;;37.85;24.80;;;14.50;99.90;;;;;;5048677;28;20052;-54
2022/10/08 02:18:09;;;;;;;39.90;26.23;;;14.50;99.90;;;;;;5049698;28;20048;-50
2022/10/08 02:21:33;;;;;;;36.10;23.70;;;14.50;99.90;;;;;;5052287;28;20044;-51
2022/10/08 02:24:42;;;;;;;38.30;22.85;;;14.50;99.90;;;;;;5051750;28;20048;-52
2022/10/08 02:28:28;;;;;;;31.65;21.02;;;14.50;99.90;;;;;;5052069;28;20048;-51
2022/10/08 02:32:02;;;;;;;33.70;22.40;;;14.40;99.90;;;;;;5052595;28;20056;-54
2022/10/08 02:35:17;;;;;;;35.80;23.63;;;14.40;99.90;;;;;;5052175;28;20040;-52
2022/10/08 02:38:28;;;;;;;37.40;23.50;;;14.40;99.90;;;;;;5052296;28;20052;-52
2022/10/08 02:41:53;;;;;;;37.83;23.30;;;14.30;99.90;;;;;;5051889;28;20203;-51
2022/10/08 02:45:11;;;;;;;38.05;25.13;;;14.30;99.90;;;;;;5051730;28;20234;-50
2022/10/08 02:48:26;;;;;;;39.60;24.45;;;14.30;99.90;;;;;;5051609;28;20068;-52
2022/10/08 02:51:35;;;;;;;36.30;25.85;;;14.30;99.90;;;;;;5051800;28;20052;-51
2022/10/08 02:54:42;;;;;;;46.17;25.85;;;14.30;99.90;;;;;;5051303;28;20047;-51
2022/10/08 02:57:53;;;;;;;39.75;25.80;;;14.30;99.90;;;;;;5051692;28;20052;-51
2022/10/08 03:00:59;;;;;;;;;;;14.40;99.90;;;;;;5052244;28;20056;-51
2022/10/08 03:04:05;;;;;;;38.67;25.90;;;14.40;99.90;;;;;;5051008;28;19916;-53
2022/10/08 03:07:12;;;;;;;39.95;26.02;;;14.40;99.90;;;;;;5051561;28;20044;-51
2022/10/08 03:10:17;;;;;;;35.63;24.73;;;14.30;99.90;;;;;;5050591;28;20051;-51
2022/10/08 03:13:22;;;;;;;35.78;23.98;;;14.30;99.90;;;;;;5051009;28;20044;-51
2022/10/08 03:16:35;;;;;;;341.92;38.55;;;14.20;99.90;;;;;;5051518;28;20039;-54
2022/10/08 03:19:38;;;;;;;218.57;32.47;;;14.10;99.90;;;;;;5051333;28;20100;-52
2022/10/08 03:22:42;;;;;;;42.88;26.75;;;14.00;99.90;;;;;;5051484;28;20416;-51
2022/10/08 03:25:46;;;;;;;37.60;22.50;;;13.90;99.90;;;;;;5050899;28;20056;-52
2022/10/08 03:28:53;;;;;;;41.50;26.10;;;13.90;99.90;;;;;;5050901;28;20361;-53
2022/10/08 03:31:57;;;;;;;37.35;26.00;;;14.00;99.90;;;;;;5051176;28;20510;-50
2022/10/08 03:35:01;;;;;;;36.80;23.77;;;14.00;99.90;;;;;;5050643;28;20103;-51
2022/10/08 03:38:05;;;;;;;42.83;25.85;;;14.00;99.90;;;;;;5050961;28;20039;-51
2022/10/08 03:41:09;;;;;;;35.65;24.95;;;14.00;99.90;;;;;;5051185;28;20040;-50
2022/10/08 03:44:12;;;;;;;40.78;27.55;;;14.00;99.90;;;;;;5050763;28;20048;-51
2022/10/08 03:47:17;;;;;;;37.90;24.67;;;13.90;99.90;;;;;;5050974;28;20052;-51
2022/10/08 03:50:20;;;;;;;38.75;23.90;;;13.90;99.90;;;;;;5050663;28;20427;-53
2022/10/08 03:53:25;;;;;;;41.70;26.60;;;13.80;99.90;;;;;;5050446;28;20044;-55
2022/10/08 03:56:31;;;;;;;36.40;24.35;;;13.70;99.90;;;;;;5050770;28;20067;-50
2022/10/08 03:59:34;;;;;;;32.63;22.95;;;13.70;99.90;;;;;;5050618;28;20396;-51
2022/10/08 04:02:39;;;;;;;36.55;24.13;;;13.70;99.90;;;;;;5050446;28;20052;-51
2022/10/08 04:05:48;;;;;;;43.42;27.05;;;13.60;99.90;;;;;;5050335;28;20052;-50
2022/10/08 04:08:52;;;;;;;34.65;22.60;;;13.60;99.90;;;;;;5050075;28;20044;-51
2022/10/08 04:11:56;;;;;;;33.67;22.85;;;13.60;99.90;;;;;;5049981;28;20048;-51
2022/10/08 04:15:01;;;;;;;57.03;34.20;;;13.60;99.90;;;;;;5050050;28;20060;-51
2022/10/08 04:18:06;;;;;;;42.20;27.45;;;13.60;99.90;;;;;;5050023;28;20036;-50
2022/10/08 04:21:12;;;;;;;35.30;24.90;;;13.60;99.90;;;;;;5050221;28;20040;-52
2022/10/08 04:24:16;;;;;;;33.72;24.60;;;13.60;99.90;;;;;;5049834;28;20055;-50
2022/10/08 04:27:20;;;;;;;38.70;23.75;;;13.60;99.90;;;;;;5050159;28;20044;-50
2022/10/08 04:30:24;;;;;;;37.40;25.13;;;13.60;99.90;;;;;;5049756;28;20515;-50
2022/10/08 04:33:31;;;;;;;42.45;26.08;;;13.70;99.90;;;;;;5049542;28;20047;-53
2022/10/08 04:36:35;;;;;;;33.25;23.98;;;13.70;99.90;;;;;;5049939;28;20040;-51
2022/10/08 04:39:39;;;;;;;39.97;23.35;;;13.80;99.90;;;;;;5050201;28;20044;-50
2022/10/08 04:42:43;;;;;;;42.22;24.80;;;13.80;99.90;;;;;;5049242;28;20056;-51
2022/10/08 04:45:46;;;;;;;44.38;26.25;;;13.80;99.90;;;;;;5050134;28;20047;-51
2022/10/08 04:48:53;;;;;;;39.70;25.73;;;13.80;99.90;;;;;;5049950;28;20052;-52
2022/10/08 04:51:57;;;;;;;35.83;26.45;;;13.80;99.90;;;;;;5049945;28;20415;-51
2022/10/08 04:55:01;;;;;;;52.50;28.67;;;13.70;99.90;;;;;;5049617;28;20526;-51
2022/10/08 04:58:05;;;;;;;163.02;35.03;;;13.70;99.90;;;;;;5049896;28;20095;-50
2022/10/08 05:01:12;;;;;;;252.35;33.83;;;13.60;99.90;;;;;;5049968;28;20396;-53
2022/10/08 05:04:16;;;;;;;213.10;27.77;;;13.40;99.90;;;;;;5049786;28;20060;-52
2022/10/08 05:07:20;;;;;;;63.85;24.60;;;13.40;99.90;;;;;;5050303;28;20679;-50
2022/10/08 05:10:24;;;;;;;273.50;31.67;;;13.40;99.90;;;;;;5049359;28;20052;-51
2022/10/08 05:13:29;;;;;;;43.38;22.42;;;13.50;99.90;;;;;;5049850;28;20399;-54
2022/10/08 05:16:33;;;;;;;45.10;26.35;;;13.40;99.90;;;;;;5049630;28;20048;-52
2022/10/08 05:19:36;;;;;;;43.85;25.00;;;13.40;99.90;;;;;;5049707;28;20051;-52
2022/10/08 05:22:41;;;;;;;47.22;26.75;;;13.40;99.90;;;;;;5050034;28;20219;-50
2022/10/08 05:25:45;;;;;;;49.75;24.63;;;13.40;99.90;;;;;;5049517;28;20056;-51
2022/10/08 05:28:53;;;;;;;28.67;19.83;;;13.40;99.90;;;;;;5049365;28;20052;-51
2022/10/08 05:31:57;;;;;;;30.42;21.48;;;13.30;99.90;;;;;;5049940;28;20056;-51
2022/10/08 05:35:02;;;;;;;36.85;21.05;;;13.30;99.90;;;;;;5048877;28;20419;-50
2022/10/08 05:38:06;;;;;;;44.30;23.83;;;13.30;99.90;;;;;;5049396;28;20043;-53
2022/10/08 05:41:19;;;;;;;83.72;21.45;;;13.20;99.90;;;;;;5049024;28;20067;-51
2022/10/08 05:44:23;;;;;;;29.33;18.85;;;13.10;99.90;;;;;;5048107;28;20048;-51
2022/10/08 05:47:26;;;;;;;27.50;18.55;;;13.10;99.90;;;;;;5048817;28;20055;-51
2022/10/08 05:50:30;;;;;;;27.48;16.77;;;13.20;99.90;;;;;;5048876;28;20044;-52
2022/10/08 05:53:40;;;;;;;26.77;15.65;;;13.40;99.90;;;;;;5051035;28;20048;-54
2022/10/08 05:56:44;;;;;;;21.38;14.18;;;13.50;99.90;;;;;;5052762;28;20048;-52
2022/10/08 05:59:48;;;;;;;25.77;14.57;;;13.70;99.90;;;;;;5052765;28;20056;-50
2022/10/08 06:02:53;;;;;;;20.77;14.20;;;13.90;99.90;;;;;;5052933;28;20059;-50
2022/10/08 06:06:02;;;;;;;24.48;16.10;;;14.10;99.90;;;;;;5052110;28;20052;-50
2022/10/08 06:09:08;;;;;;;27.92;15.93;;;14.30;99.90;;;;;;5052496;28;20238;-54
2022/10/08 06:12:12;;;;;;;32.10;17.23;;;14.50;99.90;;;;;;5052291;28;20052;-51
2022/10/08 06:15:16;;;;;;;19.17;13.30;;;14.80;99.90;;;;;;5052356;28;20052;-51
2022/10/08 06:18:21;;;;;;;26.52;13.27;;;15.20;99.90;;;;;;5052564;28;20411;-51
2022/10/08 06:21:26;;;;;;;17.63;11.30;;;15.90;99.90;;;;;;5052834;28;20048;-53
2022/10/08 06:24:30;;;;;;;14.95;11.00;;;17.60;99.90;;;;;;5052133;28;20044;-54
2022/10/08 06:27:34;;;;;;;18.88;10.60;;;18.40;99.90;;;;;;5052481;28;20040;-53
2022/10/08 06:30:40;;;;;;;14.77;9.23;;;18.40;99.90;;;;;;5051503;28;20167;-51
2022/10/08 06:33:44;;;;;;;15.65;9.40;;;18.40;99.90;;;;;;5051438;28;20052;-51
2022/10/08 06:36:48;;;;;;;17.13;11.25;;;18.10;99.90;;;;;;5052134;28;20044;-52
2022/10/08 06:39:52;;;;;;;17.98;11.65;;;17.80;99.90;;;;;;5051959;28;20040;-51
2022/10/08 06:42:56;;;;;;;18.02;12.32;;;17.50;99.90;;;;;;5052116;28;20044;-51
2022/10/08 06:46:05;;;;;;;15.90;11.30;;;17.00;99.90;;;;;;5052069;28;20036;-52
2022/10/08 06:49:10;;;;;;;19.88;11.93;;;16.60;99.90;;;;;;5050983;28;20415;-54
2022/10/08 06:52:14;;;;;;;16.67;11.23;;;16.40;99.90;;;;;;5051820;28;20047;-51
2022/10/08 06:55:19;;;;;;;15.50;10.32;;;16.60;99.90;;;;;;5047206;22;20523;-65
2022/10/08 06:58:23;;;;;;;27.63;11.85;;;16.90;99.90;;;;;;5032126;28;20049;-65
2022/10/08 07:01:28;;;;;;;16.17;11.57;;;17.20;99.90;;;;;;5032639;28;20052;-65
2022/10/08 07:04:32;;;;;;;14.85;11.65;;;17.10;99.90;;;;;;5031663;28;20045;-65
2022/10/08 07:07:36;;;;;;;14.85;9.55;;;17.10;99.90;;;;;;5032053;28;20059;-65
2022/10/08 07:10:41;;;;;;;17.38;10.32;;;17.70;99.90;;;;;;5031551;28;20053;-64
2022/10/08 07:13:45;;;;;;;16.67;10.30;;;18.80;99.90;;;;;;5031758;28;20052;-65
2022/10/08 07:16:49;;;;;;;11.20;8.77;;;19.40;99.90;;;;;;5032114;28;20044;-65
2022/10/08 07:19:53;;;;;;;17.23;9.57;;;19.80;99.90;;;;;;5031296;28;20052;-65
2022/10/08 07:22:57;;;;;;;17.63;9.77;;;20.30;99.90;;;;;;5031962;28;20388;-65
2022/10/08 07:26:08;;;;;;;12.75;9.13;;;20.40;99.90;;;;;;5032037;28;20052;-65
2022/10/08 07:29:13;;;;;;;11.10;7.88;;;20.60;99.90;;;;;;5032019;28;20068;-65
2022/10/08 07:32:17;;;;;;;12.48;7.75;;;21.70;99.90;;;;;;5031983;28;20044;-66
2022/10/08 07:35:21;;;;;;;10.90;7.40;;;23.10;99.90;;;;;;5031156;28;20036;-66
2022/10/08 07:38:25;;;;;;;9.73;7.38;;;25.10;99.90;;;;;;5031708;28;20057;-66
2022/10/08 07:41:30;;;;;;;9.10;7.20;;;26.50;99.90;;;;;;5031695;28;20048;-66
2022/10/08 07:44:34;;;;;;;12.98;7.60;;;27.30;99.90;;;;;;5030996;28;20494;-66
2022/10/08 07:47:38;;;;;;;17.50;8.88;;;28.50;99.90;;;;;;5031544;28;20056;-65
2022/10/08 07:50:42;;;;;;;9.55;7.22;;;27.80;99.90;;;;;;5031636;28;20113;-65
2022/10/08 07:53:46;;;;;;;19.55;11.60;;;27.90;99.90;;;;;;5031098;28;20040;-66
2022/10/08 07:56:50;;;;;;;13.13;8.57;;;28.40;98.90;;;;;;5030625;28;20072;-66
2022/10/08 07:59:54;;;;;;;13.82;8.98;;;28.20;99.40;;;;;;5031371;28;20575;-66
2022/10/08 08:02:58;;;;;;;13.40;9.10;;;25.20;99.90;;;;;;5031162;28;20044;-66
2022/10/08 08:06:08;;;;;;;11.85;7.70;;;25.10;99.90;;;;;;5031289;28;20045;-66
2022/10/08 08:09:13;;;;;;;7.53;6.43;;;24.50;99.90;;;;;;5031121;28;20052;-66
2022/10/08 08:12:17;;;;;;;8.95;6.57;;;23.20;99.90;;;;;;5030980;28;20044;-66
2022/10/08 08:15:21;;;;;;;9.65;6.10;;;23.20;99.90;;;;;;5029955;28;20045;-66
2022/10/08 08:18:28;;;;;;;11.15;6.25;;;25.60;99.90;;;;;;5030286;28;20040;-65
2022/10/08 08:21:35;;;;;;;10.05;6.07;;;26.70;99.90;;;;;;5030912;28;20048;-65
2022/10/08 08:24:39;;;;;;;11.57;6.82;;;26.20;99.90;;;;;;5030295;28;20052;-65
2022/10/08 08:27:43;;;;;;;9.57;6.78;;;23.50;99.90;;;;;;5030721;28;20044;-65
2022/10/08 08:30:47;;;;;;;7.18;6.20;;;23.80;99.90;;;;;;5030489;28;20052;-66
2022/10/08 08:33:54;;;;;;;8.38;6.50;;;23.90;99.90;;;;;;5030344;28;20036;-65
2022/10/08 08:36:58;;;;;;;8.82;7.20;;;24.80;99.90;;;;;;5030450;28;20040;-66
2022/10/08 08:40:02;;;;;;;9.00;5.88;;;26.30;99.90;;;;;;5030581;28;20045;-66
2022/10/08 08:43:06;;;;;;;10.25;6.35;;;27.70;99.90;;;;;;5030662;28;20056;-66
2022/10/08 08:46:15;;;;;;;10.50;6.22;;;28.60;99.80;;;;;;5030808;28;20548;-66
2022/10/08 08:49:42;;;;;;;8.38;6.30;;;28.50;99.50;;;;;;5030621;28;20396;-66
2022/10/08 08:52:46;;;;;;;7.47;5.20;;;30.30;97.90;;;;;;5030494;28;20045;-67
2022/10/08 08:55:54;;;;;;;7.13;5.72;;;32.60;96.00;;;;;;5030369;28;20251;-67
2022/10/08 08:59:13;;;;;;;6.20;4.22;;;33.80;93.50;;;;;;5030171;28;20594;-66
2022/10/08 09:02:26;;;;;;;7.43;5.25;;;34.90;92.60;;;;;;5030558;28;20036;-67
2022/10/08 09:05:34;;;;;;;6.07;5.28;;;33.20;91.30;;;;;;5029948;28;20048;-66
2022/10/08 09:08:45;;;;;;;6.93;5.80;;;32.40;93.20;;;;;;5030342;28;20045;-67
2022/10/08 09:11:50;;;;;;;7.15;5.10;;;32.10;92.40;;;;;;5030034;28;20044;-66
2022/10/08 09:14:57;;;;;;;8.00;5.68;;;33.60;91.60;;;;;;5029979;28;20056;-67
2022/10/08 09:18:03;;;;;;;7.15;4.90;;;34.70;91.20;;;;;;5030031;28;20041;-66
2022/10/08 09:21:07;;;;;;;7.13;5.05;;;37.40;88.40;;;;;;5030428;28;20436;-66
2022/10/08 09:24:12;;;;;;;7.00;5.13;;;38.20;85.50;;;;;;5029709;28;20053;-67
2022/10/08 09:27:15;;;;;;;8.35;6.15;;;39.70;81.70;;;;;;5032060;28;20048;-64
2022/10/08 09:30:25;;;;;;;12.45;7.03;;;36.80;78.90;;;;;;5034049;28;20048;-67
2022/10/08 09:33:31;;;;;;;12.13;4.82;;;37.70;81.60;;;;;;5033527;28;20052;-67
2022/10/08 09:37:02;;;;;;;6.38;5.20;;;37.70;80.70;;;;;;5033735;28;20055;-66
2022/10/08 09:40:20;;;;;;;7.00;6.07;;;39.00;80.50;;;;;;5033714;28;20040;-66
2022/10/08 09:43:24;;;;;;;8.88;5.72;;;33.30;84.00;;;;;;5033323;28;20047;-66
2022/10/08 09:46:32;;;;;;;9.25;5.95;;;33.00;85.80;;;;;;5033846;28;20117;-66
2022/10/08 09:49:39;;;;;;;10.15;5.55;;;33.30;87.00;;;;;;5033380;28;20052;-65
2022/10/08 09:52:43;;;;;;;7.68;5.53;;;32.50;87.80;;;;;;5033636;28;20520;-66
2022/10/08 09:56:03;;;;;;;9.10;6.38;;;30.50;90.80;;;;;;5033294;28;20056;-66
2022/10/08 09:59:17;;;;;;;9.25;6.07;;;28.90;92.30;;;;;;5033112;28;20048;-66
2022/10/08 10:02:29;;;;;;;8.13;5.25;;;32.20;90.40;;;;;;5033652;28;20392;-66
2022/10/08 10:05:35;;;;;;;8.38;5.63;;;35.50;86.00;;;;;;5032826;28;20033;-66
2022/10/08 10:08:54;;;;;;;9.40;5.90;;;34.40;86.70;;;;;;5033221;28;20052;-66
2022/10/08 10:12:05;;;;;;;12.25;5.60;;;33.00;88.90;;;;;;5032952;28;20050;-66
2022/10/08 10:15:19;;;;;;;11.27;6.90;;;31.00;90.40;;;;;;5032776;28;20048;-65
2022/10/08 10:18:30;;;;;;;10.25;7.50;;;29.60;91.30;;;;;;5032942;28;20045;-65
2022/10/08 10:21:54;;;;;;;;;;;28.80;92.90;;;;;;5033327;28;20408;-66
2022/10/08 10:25:18;;;;;;;12.68;8.52;;;28.40;93.90;;;;;;5031731;28;20371;-65
2022/10/08 10:28:48;;;;;;;15.20;9.57;;;28.50;93.50;;;;;;5032996;28;20040;-66
2022/10/08 10:32:20;;;;;;;11.70;8.13;;;28.80;93.80;;;;;;5032922;28;20048;-65
2022/10/08 10:35:28;;;;;;;14.73;9.02;;;29.60;93.10;;;;;;5032941;28;20048;-66
2022/10/08 10:38:36;;;;;;;14.98;8.40;;;30.40;92.70;;;;;;5032048;28;20048;-65
2022/10/08 10:42:04;;;;;;;9.65;6.47;;;31.40;91.80;;;;;;5032962;28;20044;-65
2022/10/08 10:45:19;;;;;;;8.07;5.63;;;31.40;91.40;;;;;;5032572;28;20036;-66
2022/10/08 10:48:22;;;;;;;8.40;5.70;;;31.00;91.20;;;;;;5032870;28;20064;-66
2022/10/08 10:51:42;;;;;;;9.23;4.65;;;34.00;89.20;;;;;;5032717;28;20044;-65
2022/10/08 10:55:08;;;;;;;5.60;3.87;;;37.00;85.00;;;;;;5032076;28;20049;-66
2022/10/08 10:58:24;;;;;;;11.63;4.40;;;39.30;82.60;;;;;;5032067;28;20503;-66
2022/10/08 11:02:07;;;;;;;7.57;3.08;;;40.00;78.20;;;;;;5032528;28;20452;-66
2022/10/08 11:05:26;;;;;;;11.73;4.63;;;36.00;80.60;;;;;;5032213;28;20040;-65
2022/10/08 11:09:01;;;;;;;10.80;4.68;;;31.10;87.70;;;;;;5032299;28;20052;-66
2022/10/08 11:12:06;;;;;;;7.05;4.68;;;28.60;91.90;;;;;;5031848;28;20049;-66
2022/10/08 11:15:49;;;;;;;10.73;4.95;;;28.60;92.70;;;;;;5031776;28;20040;-65
2022/10/08 11:18:58;;;;;;;11.30;6.03;;;26.20;94.10;;;;;;5031781;28;20078;-66
2022/10/08 11:22:28;;;;;;;10.82;5.80;;;25.90;96.10;;;;;;5031838;28;20048;-65
2022/10/08 11:25:39;;;;;;;16.42;6.95;;;25.50;97.70;;;;;;5027102;28;20495;-65
2022/10/08 11:28:47;;;;;;;;;;;25.20;97.80;;;;;;5032000;28;20028;-65
2022/10/08 11:31:52;;;;;;;8.70;5.40;;;24.70;98.90;;;;;;5031702;28;19920;-66
2022/10/08 11:35:17;;;;;;;7.80;5.22;;;25.00;99.00;;;;;;5031403;28;20048;-67
2022/10/08 11:38:37;;;;;;;9.45;5.63;;;24.60;99.10;;;;;;5031601;28;20041;-66
2022/10/08 11:41:53;;;;;;;7.13;5.28;;;24.90;99.90;;;;;;5031254;28;20381;-66
2022/10/08 11:45:22;;;;;;;10.25;4.93;;;24.50;99.30;;;;;;5030948;28;20049;-66
2022/10/08 11:48:34;;;;;;;6.97;4.70;;;24.90;99.00;;;;;;5031564;28;20503;-66
2022/10/08 11:51:52;;;;;;;9.88;5.10;;;25.30;98.30;;;;;;5031775;28;20044;-66
2022/10/08 11:54:56;;;;;;;8.80;4.60;;;24.90;99.00;;;;;;5031285;28;20499;-66
2022/10/08 11:58:06;;;;;;;8.18;5.18;;;25.60;97.90;;;;;;5031556;28;20033;-67
2022/10/08 12:01:10;;;;;;;5.38;4.50;;;25.60;98.00;;;;;;5031063;28;20048;-66
2022/10/08 12:04:38;;;;;;;10.73;4.90;;;25.40;98.70;;;;;;5030615;28;20508;-66
2022/10/08 12:07:49;;;;;;;8.40;4.85;;;24.90;99.30;;;;;;5031157;28;20120;-66
2022/10/08 12:10:53;;;;;;;9.18;4.13;;;25.70;98.80;;;;;;5031068;28;20048;-66
2022/10/08 12:14:18;;;;;;;6.45;4.15;;;26.60;97.90;;;;;;5030873;28;20323;-66
2022/10/08 12:17:51;;;;;;;11.73;4.50;;;27.90;96.90;;;;;;5030938;28;20512;-66
2022/10/08 12:21:14;;;;;;;5.60;4.18;;;28.80;95.40;;;;;;5030691;28;20044;-66
2022/10/08 12:24:45;;;;;;;5.43;3.63;;;29.70;94.20;;;;;;5030574;28;20048;-66
2022/10/08 12:27:49;;;;;;;5.18;3.08;;;32.00;92.20;;;;;;5030230;28;20045;-67
2022/10/08 12:30:55;;;;;;;4.13;2.75;;;34.40;89.70;;;;;;5030506;28;20061;-66
2022/10/08 12:34:11;;;;;;;6.97;3.00;;;33.70;87.20;;;;;;5030271;28;20057;-67
2022/10/08 12:37:48;;;;;;;7.95;3.08;;;34.20;87.20;;;;;;5030632;28;20049;-67
2022/10/08 12:41:22;;;;;;;7.13;3.08;;;35.30;85.40;;;;;;5030610;28;20057;-67
2022/10/08 12:44:38;;;;;;;4.75;2.88;;;35.80;82.90;;;;;;5029932;28;20388;-67
2022/10/08 12:47:56;;;;;;;5.10;2.75;;;35.40;83.60;;;;;;5030671;28;20044;-67
2022/10/08 12:51:25;;;;;;;4.75;2.72;;;34.80;83.20;;;;;;5029601;28;20040;-67
2022/10/08 12:54:31;;;;;;;6.53;2.80;;;34.60;81.80;;;;;;5030074;28;20056;-66
2022/10/08 12:57:39;;;;;;;4.82;3.05;;;31.80;83.90;;;;;;5030378;28;20059;-67
2022/10/08 13:00:44;;;;;;;4.85;2.60;;;31.40;87.70;;;;;;5030799;28;20392;-66
2022/10/08 13:04:16;;;;;;;4.13;2.88;;;29.80;86.60;;;;;;5030435;28;20512;-66
2022/10/08 13:07:27;;;;;;;6.50;2.80;;;30.60;85.80;;;;;;5041827;28;20396;-66
2022/10/08 13:10:31;;;;;;;4.57;2.60;;;29.80;88.60;;;;;;5031046;28;20045;-66
2022/10/08 13:13:37;;;;;;;5.35;2.80;;;30.40;88.10;;;;;;5030969;28;20052;-66
2022/10/08 13:16:45;;;;;;;6.45;3.30;;;30.80;87.40;;;;;;5031181;28;20044;-66
2022/10/08 13:20:21;;;;;;;10.00;3.80;;;31.30;85.80;;;;;;5030509;28;20044;-66
2022/10/08 13:23:35;;;;;;;6.93;2.83;;;30.30;87.00;;;;;;5030924;28;20040;-66
2022/10/08 13:26:47;;;;;;;6.10;3.25;;;30.60;89.70;;;;;;5031220;28;20048;-66
2022/10/08 13:29:51;;;;;;;6.72;3.15;;;31.20;86.40;;;;;;5041346;28;20306;-66
2022/10/08 13:33:12;;;;;;;5.50;2.75;;;28.90;86.00;;;;;;5030516;28;20404;-66
2022/10/08 13:36:22;;;;;;;7.30;3.15;;;30.70;86.40;;;;;;5030842;28;20045;-67
2022/10/08 13:39:33;;;;;;;4.57;2.55;;;32.50;81.40;;;;;;5030170;28;20056;-66
2022/10/08 13:42:53;;;;;;;4.80;2.08;;;33.90;77.80;;;;;;5031005;28;20061;-67
2022/10/08 13:45:57;;;;;;;5.28;2.70;;;33.90;78.20;;;;;;5030562;28;20032;-67
2022/10/08 13:49:01;;;;;;;4.60;2.33;;;33.60;80.20;;;;;;5030802;28;20044;-67
2022/10/08 13:52:08;;;;;;;2.50;2.03;;;33.90;78.60;;;;;;5030645;28;20388;-66
2022/10/08 13:55:27;;;;;;;3.45;2.25;;;34.80;78.30;;;;;;5030168;28;20078;-66
2022/10/08 13:58:31;;;;;;;5.38;2.22;;;35.40;76.60;;;;;;5030288;28;20511;-67
2022/10/08 14:01:35;;;;;;;3.58;2.05;;;35.40;76.60;;;;;;5030087;28;20045;-67
2022/10/08 14:04:39;;;;;;;4.65;2.00;;;36.10;76.50;;;;;;5030001;28;20042;-66
2022/10/08 14:07:44;;;;;;;4.95;2.15;;;36.70;75.60;;;;;;5030681;28;20087;-66
2022/10/08 14:10:50;;;;;;;5.57;2.30;;;33.90;74.60;;;;;;5029842;28;20044;-66
2022/10/08 14:13:54;;;;;;;3.85;2.40;;;34.10;75.90;;;;;;5031172;28;20060;-66
2022/10/08 14:16:58;;;;;;;2.83;2.20;;;34.00;75.40;;;;;;5033799;28;20370;-66
2022/10/08 14:20:03;;;;;;;7.45;2.35;;;33.90;75.80;;;;;;5033560;28;20040;-66
2022/10/08 14:23:08;;;;;;;4.38;2.45;;;34.30;76.60;;;;;;5033709;28;20060;-66
2022/10/08 14:26:12;;;;;;;5.43;2.40;;;34.30;75.50;;;;;;5033853;28;20044;-65
2022/10/08 14:29:16;;;;;;;2.70;2.00;;;33.90;76.00;;;;;;5033716;28;20049;-66
2022/10/08 14:32:20;;;;;;;3.05;2.33;;;33.50;77.20;;;;;;5033538;28;20048;-66
2022/10/08 14:35:24;;;;;;;5.00;2.30;;;34.10;77.00;;;;;;5033373;28;20085;-66
2022/10/08 14:38:31;;;;;;;3.63;2.47;;;34.60;76.50;;;;;;5033701;28;20511;-66
2022/10/08 14:41:36;;;;;;;5.38;2.78;;;34.50;76.60;;;;;;5033047;28;20048;-66
2022/10/08 14:44:40;;;;;;;7.40;3.17;;;31.70;79.90;;;;;;5033339;28;20050;-66
2022/10/08 14:47:44;;;;;;;10.82;3.05;;;31.10;81.00;;;;;;5033289;28;20033;-66
2022/10/08 14:50:49;;;;;;;5.85;3.08;;;30.90;81.80;;;;;;5033374;28;20515;-67
2022/10/08 14:53:52;;;;;;;6.30;3.20;;;31.50;83.40;;;;;;5032981;28;20045;-67
2022/10/08 14:56:56;;;;;;;5.57;2.85;;;31.50;83.80;;;;;;5033237;28;20052;-66
2022/10/08 15:00:00;;;;;;;7.88;3.20;;;31.80;84.10;;;;;;5033150;28;20397;-66
2022/10/08 15:03:04;;;;;;;6.82;3.60;;;32.00;83.50;;;;;;5033104;28;20503;-66
2022/10/08 15:06:08;;;;;;;4.18;3.17;;;31.70;83.70;;;;;;5033089;28;20052;-66
2022/10/08 15:09:15;;;;;;;7.43;3.22;;;31.40;85.00;;;;;;5033055;28;20117;-66
2022/10/08 15:12:19;;;;;;;8.05;3.95;;;31.20;85.60;;;;;;5032896;28;20400;-66
2022/10/08 15:15:23;;;;;;;8.25;4.63;;;30.80;87.80;;;;;;5032617;28;20064;-66
2022/10/08 15:18:29;;;;;;;6.93;4.00;;;30.30;88.20;;;;;;5032646;28;20044;-66
2022/10/08 15:21:34;;;;;;;6.72;3.58;;;30.00;89.20;;;;;;5032542;28;20500;-65
2022/10/08 15:24:38;;;;;;;7.85;3.85;;;29.70;89.40;;;;;;5031805;28;20048;-66
2022/10/08 15:27:44;;;;;;;8.80;4.78;;;29.50;90.10;;;;;;5032359;28;20049;-66
2022/10/08 15:30:48;;;;;;;7.28;4.47;;;29.30;90.50;;;;;;5032884;28;20040;-66
2022/10/08 15:33:55;;;;;;;6.57;4.53;;;29.00;90.40;;;;;;5031943;28;20425;-66
2022/10/08 15:36:59;;;;;;;7.85;5.32;;;28.80;90.80;;;;;;5032330;28;20645;-66
2022/10/08 15:40:04;;;;;;;10.20;5.15;;;28.30;91.50;;;;;;5032433;28;20502;-66
2022/10/08 15:43:08;;;;;;;10.00;5.03;;;27.70;92.50;;;;;;5032393;28;20044;-66
2022/10/08 15:46:15;;;;;;;11.20;5.32;;;27.30;93.10;;;;;;5032076;28;20041;-66
2022/10/08 15:49:20;;;;;;;6.90;5.30;;;26.90;93.80;;;;;;5032328;28;20041;-68
2022/10/08 15:52:24;;;;;;;8.85;5.70;;;26.60;94.10;;;;;;5032258;28;20056;-67
2022/10/08 15:55:28;;;;;;;10.95;5.95;;;26.30;94.70;;;;;;5042454;28;20044;-67
2022/10/08 15:58:36;;;;;;;10.20;5.65;;;25.90;95.20;;;;;;5032252;28;20053;-66
2022/10/08 16:01:40;;;;;;;12.90;6.03;;;25.60;95.90;;;;;;5031840;28;20052;-67
2022/10/08 16:04:46;;;;;;;13.70;7.65;;;25.20;96.60;;;;;;5031705;28;20048;-67
2022/10/08 16:07:50;;;;;;;14.98;9.38;;;24.90;97.60;;;;;;5032383;28;20045;-67
2022/10/08 16:10:54;;;;;;;31.92;15.00;;;24.60;98.10;;;;;;5032261;28;20491;-66